createdAt,value
2024-02-12T00:03:52.377Z,4145.5
2024-02-12T00:09:29.490Z,4146
2024-02-12T00:15:05.886Z,4144.1
2024-02-12T00:20:42.513Z,4145.3
2024-02-12T00:26:18.829Z,4144.1
2024-02-12T00:31:54.063Z,4145.6
2024-02-12T00:37:29.799Z,4144.8
2024-02-12T00:43:05.854Z,4141.8
2024-02-12T00:48:42.274Z,4146.5
2024-02-12T00:54:19.782Z,4142.4
2024-02-12T00:59:56.237Z,4144.1
2024-02-12T01:05:32.121Z,4142.9
2024-02-12T01:11:08.169Z,4142.9
2024-02-12T01:16:43.678Z,4141.4
2024-02-12T01:22:19.025Z,4140.6
2024-02-12T01:27:54.530Z,4141.1
2024-02-12T01:33:30.410Z,4141.8
2024-02-12T01:39:05.456Z,4141.6
2024-02-12T01:44:41.542Z,4139.4
2024-02-12T01:50:18.861Z,4140.9
2024-02-12T01:55:54.340Z,4142.9
2024-02-12T02:01:30.915Z,4140.8
2024-02-12T02:07:06.566Z,4138.4
2024-02-12T02:12:41.916Z,4139.6
2024-02-12T02:18:18.792Z,4137.2
2024-02-12T02:23:54.096Z,4136.9
2024-02-12T02:29:30.242Z,4139.1
2024-02-12T02:35:07.039Z,4140.8
2024-02-12T02:40:42.693Z,4138.6
2024-02-12T02:46:18.739Z,4138.3
2024-02-12T02:51:54.349Z,4135.6
2024-02-12T02:57:31.010Z,4139.1
2024-02-12T03:03:07.401Z,4136.7
2024-02-12T03:08:43.643Z,4133.1
2024-02-12T03:14:19.783Z,4135.7
2024-02-12T03:19:55.267Z,4135.1
2024-02-12T03:25:31.147Z,4132.7
2024-02-12T03:31:07.016Z,4134.6
2024-02-12T03:36:43.290Z,4136.1
2024-02-12T03:42:19.142Z,4132.1
2024-02-12T03:47:56.247Z,4131.2
2024-02-12T03:53:33.602Z,4133.1
2024-02-12T03:59:09.951Z,4130.9
2024-02-12T04:04:45.823Z,4130.7
2024-02-12T04:10:21.730Z,4130.9
2024-02-12T04:15:57.210Z,4133.1
2024-02-12T04:21:33.095Z,4131.9
2024-02-12T04:27:09.606Z,4132.6
2024-02-12T04:32:46.979Z,4132.2
2024-02-12T04:38:23.144Z,4130.2
2024-02-12T04:43:59.195Z,4132.6
2024-02-12T04:49:35.277Z,4128.4
2024-02-12T04:55:10.939Z,4127.7
2024-02-12T05:00:47.017Z,4131.6
2024-02-12T05:06:22.579Z,4129.4
2024-02-12T05:11:58.113Z,4124.5
2024-02-12T05:17:34.908Z,4128.9
2024-02-12T05:23:11.903Z,4127.4
2024-02-12T05:28:47.399Z,4128.7
2024-02-12T05:34:23.380Z,4129.4
2024-02-12T05:39:59.606Z,4126
2024-02-12T05:45:35.332Z,4128.2
2024-02-12T05:51:10.379Z,4124.7
2024-02-12T05:56:51.338Z,4129
2024-02-12T06:02:27.029Z,4124
2024-02-12T06:08:05.094Z,4124.7
2024-02-12T06:13:41.808Z,4124.4
2024-02-12T06:19:19.168Z,4125.2
2024-02-12T06:24:54.348Z,4123
2024-02-12T06:30:29.817Z,4118.8
2024-02-12T06:36:05.525Z,4120.2
2024-02-12T06:41:41.078Z,4119.8
2024-02-12T06:47:17.239Z,4120.3
2024-02-12T06:52:52.841Z,4121.8
2024-02-12T06:58:27.971Z,4116.6
2024-02-12T07:04:05.007Z,4117
2024-02-12T07:09:40.358Z,4117.8
2024-02-12T07:15:15.350Z,4115.5
2024-02-12T07:20:51.409Z,4116.3
2024-02-12T07:26:27.676Z,4116.8
2024-02-12T07:32:03.806Z,4117.8
2024-02-12T07:37:40.495Z,4135.9
2024-02-12T07:43:16.152Z,4120.5
2024-02-12T07:48:52.686Z,4128.7
2024-02-12T07:54:29.464Z,4152
2024-02-12T08:00:08.809Z,4174.1
2024-02-12T08:05:45.022Z,4147.8
2024-02-12T08:11:21.742Z,4147.5
2024-02-12T08:16:58.232Z,4160.4
2024-02-12T08:22:33.708Z,4165.1
2024-02-12T08:28:09.169Z,4161.4
2024-02-12T08:33:46.272Z,4161.9
2024-02-12T08:39:24.765Z,4153.2
2024-02-12T08:45:03.974Z,4206.4
2024-02-12T08:50:39.729Z,4180.3
2024-02-12T08:56:16.925Z,4193.5
2024-02-12T09:01:53.833Z,4206.8
2024-02-12T09:07:31.967Z,4192.9
2024-02-12T09:13:07.894Z,4185.8
2024-02-12T09:18:45.257Z,4179.6
2024-02-12T09:24:20.453Z,4167.2
2024-02-12T09:29:55.661Z,4160.9
2024-02-12T09:35:32.679Z,4160.2
2024-02-12T09:41:09.108Z,4168.7
2024-02-12T09:46:45.545Z,4164.7
2024-02-12T09:52:23.017Z,4170.6
2024-02-12T09:57:58.920Z,4169.6
2024-02-12T10:03:35.490Z,4172.8
2024-02-12T10:09:11.747Z,4200.7
2024-02-12T10:14:48.729Z,4204.9
2024-02-12T10:20:26.118Z,4204.4
2024-02-12T10:26:02.915Z,4192.7
2024-02-12T10:31:42.400Z,4197.7
2024-02-12T10:37:21.050Z,4208.4
2024-02-12T10:42:56.862Z,4181.3
2024-02-12T10:48:34.775Z,4181.5
2024-02-12T10:54:09.912Z,4181
2024-02-12T10:59:46.621Z,4190.3
2024-02-12T11:05:23.659Z,4171.9
2024-02-12T11:10:59.162Z,4169.7
2024-02-12T11:16:36.298Z,4164.6
2024-02-12T11:22:13.516Z,4163.9
2024-02-12T11:27:48.369Z,4162.9
2024-02-12T11:33:24.449Z,4163
2024-02-12T11:39:00.195Z,4171.6
2024-02-12T11:44:39.056Z,4176.6
2024-02-12T11:50:15.687Z,4175.1
2024-02-12T11:55:51.428Z,4170.8
2024-02-12T12:01:26.613Z,4173.6
2024-02-12T12:07:02.753Z,4172.8
2024-02-12T12:13:02.666Z,4164.2
2024-02-12T12:18:40.350Z,4162.9
2024-02-12T12:24:16.318Z,4165.1
2024-02-12T12:29:55.750Z,4164.4
2024-02-12T12:35:33.400Z,4162.9
2024-02-12T12:41:09.938Z,4165.2
2024-02-12T12:46:45.842Z,4163.7
2024-02-12T12:52:21.911Z,4168.6
2024-02-12T12:57:57.553Z,4165.4
2024-02-12T13:03:33.997Z,4164.4
2024-02-12T13:09:10.768Z,4160.5
2024-02-12T13:14:48.609Z,4161.2
2024-02-12T13:20:26.466Z,4159.4
2024-02-12T13:26:07.561Z,4161
2024-02-12T13:31:43.359Z,4156.8
2024-02-12T13:37:20.430Z,4159.9
2024-02-12T13:42:56.215Z,4156
2024-02-12T13:48:33.332Z,4157.4
2024-02-12T13:54:08.322Z,4159
2024-02-12T13:59:44.274Z,4154
2024-02-12T14:05:23.598Z,4154.7
2024-02-12T14:11:00.815Z,4154.8
2024-02-12T14:16:36.373Z,4152.8
2024-02-12T14:22:12.287Z,4153.5
2024-02-12T14:27:47.744Z,4156.2
2024-02-12T14:33:25.769Z,4153.8
2024-02-12T14:39:02.382Z,4151.7
2024-02-12T14:44:38.310Z,4148
2024-02-12T14:50:17.655Z,4150.8
2024-02-12T14:55:53.701Z,4152.7
2024-02-12T15:01:30.102Z,4152.7
2024-02-12T15:07:06.061Z,4150.7
2024-02-12T15:12:42.180Z,4152
2024-02-12T15:18:20.500Z,4149.1
2024-02-12T15:23:56.437Z,4150.5
2024-02-12T15:29:32.353Z,4148.5
2024-02-12T15:35:08.462Z,4151
2024-02-12T15:40:45.205Z,4148.5
2024-02-12T15:46:20.832Z,4146.5
2024-02-12T15:51:56.054Z,4147.6
2024-02-12T15:57:32.028Z,4148
2024-02-12T16:03:07.320Z,4146
2024-02-12T16:08:44.115Z,4148
2024-02-12T16:14:20.517Z,4147.3
2024-02-12T16:19:57.323Z,4147
2024-02-12T16:25:33.102Z,4145.5
2024-02-12T16:31:08.525Z,4146.8
2024-02-12T16:36:43.815Z,4147
2024-02-12T16:42:19.248Z,4145.5
2024-02-12T16:47:56.335Z,4143.8
2024-02-12T16:53:32.809Z,4146.6
2024-02-12T16:59:09.378Z,4144.8
2024-02-12T17:04:44.508Z,4146.8
2024-02-12T17:10:20.100Z,4142.4
2024-02-12T17:15:55.480Z,4144.1
2024-02-12T17:21:30.717Z,4142.9
2024-02-12T17:27:06.198Z,4142.3
2024-02-12T17:32:44.861Z,4143.6
2024-02-12T17:38:21.718Z,4140.4
2024-02-12T17:43:58.047Z,4141.1
2024-02-12T17:49:34.857Z,4141.8
2024-02-12T17:55:10.603Z,4140.4
2024-02-12T18:00:47.006Z,4145.1
2024-02-12T18:06:25.945Z,4140.6
2024-02-12T18:12:01.911Z,4137.8
2024-02-12T18:17:39.302Z,4142.3
2024-02-12T18:23:15.664Z,4140.6
2024-02-12T18:28:50.957Z,4142.1
2024-02-12T18:34:27.209Z,4138.3
2024-02-12T18:40:03.434Z,4139.8
2024-02-12T18:45:41.206Z,4138.4
2024-02-12T18:51:16.996Z,4139.1
2024-02-12T18:56:52.855Z,4138.4
2024-02-12T19:02:29.028Z,4139.4
2024-02-12T19:08:05.150Z,4137.9
2024-02-12T19:13:41.830Z,4137.6
2024-02-12T19:19:18.246Z,4139.3
2024-02-12T19:24:54.601Z,4136.2
2024-02-12T19:30:30.026Z,4138.6
2024-02-12T19:36:05.515Z,4138.6
2024-02-12T19:41:42.102Z,4141.4
2024-02-12T19:47:18.731Z,4138.9
2024-02-12T19:52:53.850Z,4135.9
2024-02-12T19:58:30.509Z,4136.1
2024-02-12T20:04:06.722Z,4139.1
2024-02-12T20:09:42.055Z,4134.6
2024-02-12T20:15:17.602Z,4132.6
2024-02-12T20:20:54.410Z,4136.7
2024-02-12T20:26:31.288Z,4133.1
2024-02-12T20:32:07.712Z,4134.1
2024-02-12T20:37:43.012Z,4132.9
2024-02-12T20:43:18.490Z,4132.2
2024-02-12T20:48:55.054Z,4135.9
2024-02-12T20:54:33.431Z,4131.7
2024-02-12T21:00:08.679Z,4130.5
2024-02-12T21:05:45.503Z,4130.7
2024-02-12T21:11:21.932Z,4131.9
2024-02-12T21:16:58.098Z,4133.6
2024-02-12T21:22:34.983Z,4132.2
2024-02-12T21:28:11.233Z,4131.4
2024-02-12T21:33:47.782Z,4130
2024-02-12T21:39:24.154Z,4132.9
2024-02-12T21:45:02.330Z,4130.9
2024-02-12T21:50:39.266Z,4130.7
2024-02-12T21:56:15.378Z,4129.2
2024-02-12T22:01:50.917Z,4131.1
2024-02-12T22:07:26.079Z,4131.9
2024-02-12T22:13:01.599Z,4125.7
2024-02-12T22:18:39.000Z,4126.4
2024-02-12T22:24:14.134Z,4129.4
2024-02-12T22:29:50.974Z,4127.9
2024-02-12T22:35:27.048Z,4126.7
2024-02-12T22:41:02.421Z,4126.9
2024-02-12T22:46:38.630Z,4127.4
2024-02-12T22:52:14.432Z,4128.9
2024-02-12T22:57:50.026Z,4126.4
2024-02-12T23:03:25.974Z,4124
2024-02-12T23:09:01.555Z,4124.7
2024-02-12T23:14:38.406Z,4124.5
2024-02-12T23:20:15.438Z,4120.7
2024-02-12T23:25:51.253Z,4122.5
2024-02-12T23:31:26.553Z,4123.7
2024-02-12T23:37:02.838Z,4122
2024-02-12T23:42:44.220Z,4123.2
2024-02-12T23:48:21.702Z,4119
2024-02-12T23:53:57.649Z,4121.3
2024-02-12T23:59:33.296Z,4121.5
